Date,TemperatureHighF,TemperatureAvgF,TemperatureLowF,DewpointHighF,DewpointAvgF,DewpointLowF,HumidityHigh,HumidityAvg,HumidityLow,PressureMaxIn,PressureMinIn,WindSpeedMaxMPH,WindSpeedAvgMPH,GustSpeedMaxMPH,PrecipitationSumIn
2013-1-6,52,45,42,50,44,41,98,97,92,30.21,30.11,5,0,5,0.22
2013-1-7,66,47,36,47,42,36,99,84,39,30.25,30.10,6,0,6,0.01
2013-1-8,63,52,44,61,50,42,95,92,88,30.15,30.05,4,0,4,0.00
2013-1-9,71,66,61,68,65,60,99,95,90,30.14,30.04,7,0,7,0.03
2013-1-10,73,67,61,70,66,61,100,98,91,30.13,29.85,9,1,10,0.26
2013-1-11,78,70,62,73,68,62,100,95,83,30.05,29.95,10,0,10,0.00
2013-1-12,79,72,68,73,70,68,99,94,81,30.00,29.87,10,0,11,0.00
2013-1-13,76,70,58,73,69,57,98,96,89,29.95,29.84,12,1,12,0.10
2013-1-14,58,51,43,57,51,43,99,98,97,30.04,29.94,6,0,6,0.30
2013-1-15,57,49,44,56,48,43,100,99,98,30.00,29.88,4,0,4,0.06
2013-1-16,47,44,40,46,43,39,97,95,92,30.00,29.91,5,0,8,0.13
2013-1-17,55,43,35,41,38,34,97,83,54,30.30,30.00,14,0,14,0.00
2013-1-18,61,43,33,45,38,32,97,84,46,30.45,30.30,6,0,6,0.00
2013-1-19,67,48,32,52,42,32,99,85,53,30.32,30.16,5,0,5,0.00
2013-1-20,40,38,36,39,37,35,98,98,98,30.18,30.15,0,0,0,0.00
2013-1-27,58,58,57,58,57,56,99,99,98,30.18,30.16,0,0,0,0.00
2013-1-28,79,66,56,68,63,55,100,91,65,30.18,30.05,6,0,6,0.00
2013-1-29,75,70,68,72,69,67,99,95,88,30.04,29.89,12,1,12,0.00
2013-1-30,72,52,40,70,49,35,98,89,68,30.07,29.61,14,0,21,0.98
2013-1-31,63,45,31,41,35,29,99,74,28,30.25,30.07,5,0,7,0.00
2013-2-1,64,44,35,47,39,34,98,85,46,30.27,30.23,4,0,4,0.00
2013-2-2,68,47,29,54,42,29,98,84,52,30.29,30.11,7,0,7,0.00
2013-2-3,71,53,40,51,43,32,99,76,26,30.19,30.05,10,0,10,0.00
2013-2-4,65,51,37,54,46,36,99,87,57,30.05,29.90,2,0,2,0.16
2013-2-5,71,60,52,64,58,52,99,95,79,29.96,29.85,6,0,6,0.32
2013-2-6,74,60,52,64,58,52,99,93,68,30.07,29.92,8,0,8,0.04
2013-2-7,79,64,51,65,60,50,99,88,58,29.93,29.73,14,0,14,1.69
2013-2-8,75,60,48,64,56,48,99,89,66,30.09,29.86,6,0,7,0.00
2013-2-9,69,55,45,59,51,43,98,87,68,30.17,30.01,6,0,6,0.00
2013-2-10,72,67,56,70,65,55,99,93,84,30.02,29.87,13,1,13,0.06
2013-2-11,69,62,57,69,62,57,99,98,93,30.04,29.89,8,0,8,0.48
2013-2-12,70,62,56,69,62,56,100,99,98,29.98,29.67,8,0,8,0.11
2013-2-13,67,52,40,66,51,39,99,97,87,30.00,29.70,8,0,8,0.25
2013-2-14,63,46,37,50,42,36,100,88,51,30.09,29.97,5,0,5,0.00
2013-2-15,56,37,32,50,36,32,100,98,80,30.11,30.02,2,0,2,0.00
2013-2-16,58,44,29,28,26,20,92,54,26,30.23,30.08,11,1,11,0.00
2013-2-17,58,40,26,40,32,25,98,76,33,30.31,30.18,6,0,6,0.00
2013-2-18,68,49,34,54,43,33,99,82,56,30.19,30.03,12,1,14,0.00
2013-2-20,63,48,38,41,37,28,95,71,28,30.06,29.98,4,0,4,0.00
2013-2-21,68,58,40,67,53,36,96,85,69,29.99,29.75,8,1,8,0.00
2013-2-22,70,64,58,68,61,55,99,92,61,29.90,29.78,6,0,6,2.18
2013-2-23,60,57,55,59,57,52,99,97,89,29.87,29.72,6,0,6,1.16
2013-2-24,72,59,46,61,55,46,99,87,65,29.91,29.69,6,0,6,0.35
2013-2-25,68,63,60,68,62,59,100,99,98,29.74,29.40,15,1,15,4.45
2013-2-26,64,54,47,61,46,40,99,77,48,29.85,29.45,9,0,9,0.00
2013-2-27,67,53,44,52,47,43,99,82,44,29.95,29.84,7,0,7,0.00
2013-2-28,62,49,37,47,40,32,98,74,38,30.03,29.92,7,0,7,0.00
2013-3-1,65,48,36,42,36,32,97,69,32,30.09,29.92,6,0,8,0.00
2013-3-2,53,40,29,35,30,26,97,71,48,30.16,30.04,9,0,9,0.00
2013-3-3,58,41,26,34,26,23,94,62,27,30.20,30.06,8,0,8,0.00
2013-3-5,76,59,45,63,49,42,89,69,48,30.09,29.86,7,0,7,0.00
2013-3-6,65,48,34,42,35,31,94,65,31,30.22,30.08,10,0,10,0.00
2013-3-7,66,48,35,46,38,33,96,73,37,30.27,30.14,5,0,7,0.00
2013-3-8,75,52,33,50,42,32,99,76,29,30.24,30.11,6,0,6,0.00
2013-3-9,73,57,43,60,51,42,98,81,54,30.12,29.99,8,0,8,0.00
2013-3-10,67,67,67,64,64,64,92,92,91,29.82,29.81,4,1,4,0.00
2013-3-11,68,56,42,66,53,41,97,90,71,29.93,29.75,9,1,9,0.12
2013-3-12,70,51,37,45,41,36,99,75,35,30.12,29.92,9,0,9,0.00
2013-3-13,70,53,37,45,34,23,97,58,21,30.29,30.11,11,0,11,0.00
2013-3-14,71,50,34,43,34,25,94,59,22,30.37,30.20,7,0,7,0.00
2013-3-15,73,55,36,54,45,36,99,74,36,30.24,30.06,9,1,9,0.00
2013-3-16,77,62,44,62,55,43,99,81,52,30.06,29.90,8,1,8,0.00
2013-3-17,78,62,50,68,59,49,99,89,61,29.92,29.79,9,0,9,0.00
2013-3-18,82,71,64,72,67,61,96,88,69,29.83,29.68,8,1,8,0.00
2013-3-19,81,66,54,69,56,46,97,75,37,29.95,29.77,8,0,8,0.04
2013-3-20,63,56,53,51,44,40,91,65,53,30.04,29.89,7,0,7,0.01
2013-3-22,68,64,63,61,60,59,91,87,73,29.79,29.74,6,0,6,0.02
2013-3-23,77,69,61,73,66,59,99,93,82,29.79,29.50,8,0,8,0.19
2013-3-24,80,70,59,70,64,49,99,84,48,29.64,29.49,13,1,13,0.01
2013-3-25,38,37,36,33,33,32,85,83,81,30.15,30.14,0,0,0,0.00
2013-3-26,60,44,30,33,30,27,93,64,31,30.28,30.15,8,0,10,0.00
2013-3-28,71,57,42,48,44,40,94,64,34,30.24,30.17,7,0,7,0.00
2013-3-29,66,44,38,56,42,37,99,95,62,30.26,30.18,3,0,3,0.00
2013-4-2,82,72,62,60,57,52,93,63,38,29.97,29.91,8,0,8,0.00
2013-4-3,64,59,54,63,58,52,99,95,90,30.00,29.67,14,0,14,2.54
2013-4-4,69,58,53,61,55,50,98,89,74,29.90,29.80,5,0,5,0.00
2013-4-5,72,56,46,55,50,45,96,80,49,30.05,29.90,9,0,9,0.00
2013-4-6,76,57,40,58,50,39,99,80,40,30.09,30.00,7,0,7,0.00
2013-4-7,79,61,45,65,56,44,99,84,52,30.06,29.93,7,0,7,0.00
2013-4-8,81,68,54,70,64,54,99,87,61,29.98,29.89,9,0,10,0.00
2013-4-9,83,75,69,74,70,68,97,87,70,29.98,29.87,11,1,11,0.00
2013-4-10,71,70,69,69,68,67,96,95,94,29.93,29.86,2,0,2,0.00
2013-4-11,76,65,56,73,64,55,97,97,92,29.75,29.53,9,0,10,1.80
2013-4-12,56,53,49,55,52,48,97,95,88,29.86,29.73,7,0,7,0.00
2013-4-14,73,65,57,67,63,57,99,93,80,29.86,29.68,7,0,9,2.38
2013-4-15,77,68,64,74,68,63,99,97,88,29.89,29.74,2,0,2,0.00
2013-4-16,74,69,67,72,68,67,98,96,91,30.03,30.00,0,0,1,0.00
2013-4-17,68,67,67,67,67,67,98,98,98,30.03,30.02,0,0,0,0.00
2013-4-18,75,75,75,74,74,73,96,95,94,29.79,29.76,6,1,9,0.00
2013-4-19,75,57,45,74,55,44,98,96,84,30.06,29.72,10,0,10,1.19
2013-4-20,72,62,47,50,46,42,95,61,37,30.19,30.04,7,0,7,0.00
2013-4-21,76,56,43,53,47,42,97,77,37,30.14,30.07,6,0,6,0.00
2013-4-24,72,68,60,70,67,59,99,96,90,30.08,29.91,6,0,11,0.51
2013-4-25,78,63,55,66,57,52,98,84,57,30.21,30.08,8,0,8,0.00
2013-4-26,82,66,51,64,56,49,96,74,42,30.21,30.12,5,0,5,0.00
2013-4-27,83,70,59,72,65,58,99,87,62,30.13,29.96,7,0,7,0.00
2013-4-28,80,69,63,74,68,62,99,94,78,29.99,29.87,5,0,5,0.06
2013-4-29,85,70,62,74,67,62,99,91,60,29.91,29.80,3,0,3,0.34
2013-4-30,80,69,60,74,67,60,100,95,77,29.87,29.79,4,0,4,1.17
2013-5-1,80,70,67,74,69,66,100,97,82,29.84,29.76,4,0,4,0.01
2013-5-6,50,45,42,50,44,42,99,98,97,29.94,29.90,0,0,0,0.00
2013-5-9,82,72,66,71,66,64,97,84,61,30.03,29.97,6,0,6,1.05
2013-5-10,74,68,63,70,67,62,99,96,83,30.05,29.78,8,0,8,0.58
2013-5-11,77,68,60,73,66,60,100,95,81,29.99,29.86,3,0,3,0.42
2013-5-12,81,69,59,66,62,57,100,80,55,30.06,29.93,7,0,7,0.00
2013-5-13,70,56,50,57,52,49,97,87,52,30.20,30.05,5,0,5,0.00
2013-5-14,86,75,60,64,61,55,97,66,39,30.20,30.08,5,0,5,0.00
2013-5-15,87,71,56,66,59,56,98,71,39,30.12,29.96,5,0,5,0.00
2013-5-16,66,65,65,64,64,63,96,95,94,29.97,29.92,0,0,0,0.00
2013-5-22,84,74,67,76,71,66,99,91,74,29.96,29.82,2,0,2,0.74
2013-5-23,74,66,63,74,66,63,100,99,98,29.97,29.87,1,0,1,0.00
2013-6-2,93,81,71,78,74,70,97,81,56,29.85,29.79,5,0,5,0.21
2013-6-3,91,74,69,79,72,68,99,94,66,29.84,29.78,3,0,3,0.00
2013-6-5,91,82,72,80,76,70,98,85,67,29.85,29.76,5,0,5,0.03
2013-6-6,93,76,65,78,70,64,99,85,53,29.78,29.64,6,0,6,0.01
2013-6-7,84,71,67,75,70,67,99,95,71,29.78,29.69,2,0,2,0.00
2013-6-11,94,83,75,82,76,74,97,83,64,29.98,29.92,4,0,4,0.00
2013-6-12,95,81,71,83,76,71,99,86,59,30.01,29.92,4,0,4,0.00
2013-6-14,95,84,73,82,73,69,88,70,51,29.86,29.77,4,0,4,0.00
2013-6-15,93,74,68,78,70,66,95,88,60,29.93,29.84,2,0,2,0.00
2013-6-24,88,87,87,79,77,75,75,72,68,30.04,30.03,1,0,1,0.01
2013-6-28,97,92,81,84,81,78,89,71,60,29.83,29.68,4,0,4,0.00
2013-7-3,85,77,73,79,74,72,99,91,78,29.95,29.91,3,0,4,0.27
2013-7-4,90,82,75,81,77,74,98,86,69,29.91,29.83,4,0,4,0.27
2013-7-5,77,75,73,77,75,73,99,99,98,30.00,29.89,3,0,3,0.69
2013-7-7,80,77,73,80,77,73,100,99,98,30.05,29.97,2,0,2,1.37
2013-7-8,88,77,72,81,76,72,100,97,77,30.09,29.99,3,0,3,0.01
2013-7-9,95,79,70,83,75,70,100,90,62,30.11,30.01,3,0,3,0.00
2013-7-10,92,80,72,83,76,72,100,90,69,30.02,29.92,4,0,4,0.25
2013-7-12,90,90,90,79,79,79,69,69,69,29.82,29.82,0,0,3,0.00
2013-7-13,91,77,71,83,75,70,99,93,71,29.88,29.77,3,0,3,0.33
2013-7-14,91,75,69,80,73,69,100,93,60,29.93,29.83,5,0,5,0.00
2013-7-15,90,80,73,82,76,72,98,88,70,30.04,29.98,4,0,5,0.43
2013-7-16,85,77,72,81,75,72,99,96,84,30.11,30.00,5,0,7,0.44
2013-7-17,92,79,72,81,76,72,100,91,64,30.13,30.03,7,0,7,0.28
2013-7-18,92,77,71,83,75,71,100,93,69,30.09,29.92,4,0,4,0.66
2013-7-19,88,75,70,81,74,69,100,96,74,30.00,29.88,3,0,3,1.95
2013-7-20,90,79,72,81,76,72,100,91,68,29.93,29.84,3,0,3,0.00
2013-7-21,89,79,72,81,76,72,100,92,75,29.99,29.90,4,0,4,0.25
2013-7-22,74,73,73,73,73,72,99,99,98,29.97,29.92,0,0,0,0.67
2013-7-23,93,81,72,84,78,72,100,91,70,29.97,29.83,5,0,5,0.01
2013-7-24,94,82,76,82,78,72,100,89,63,29.89,29.79,6,0,6,0.00
2013-7-25,93,80,72,82,75,71,99,87,62,29.94,29.81,4,0,5,0.02
2013-7-26,95,80,70,81,74,70,99,84,48,29.98,29.88,1,0,3,0.00
2013-7-27,82,76,72,81,75,71,99,97,90,29.91,29.80,9,0,9,0.22
2013-7-29,94,84,76,83,78,76,98,83,64,30.02,29.95,3,0,3,0.00
2013-7-30,94,82,74,84,78,73,100,90,66,30.07,29.97,3,0,3,0.00
2013-7-31,94,82,74,84,78,73,100,90,66,30.02,29.90,3,0,5,0.97
2013-8-2,94,83,75,82,78,74,98,87,57,29.94,29.86,1,0,2,0.00
2013-8-3,97,82,71,83,77,71,100,86,51,29.98,29.90,1,0,3,0.00
2013-8-4,96,83,74,84,78,74,100,86,59,30.01,29.89,4,0,4,0.00
2013-8-5,79,75,73,76,74,73,99,98,91,29.96,29.88,0,0,3,0.23
2013-8-6,96,82,73,85,78,73,100,88,56,29.93,29.82,9,0,9,0.06
2013-8-7,96,81,73,86,78,72,100,92,65,29.90,29.83,1,0,3,0.00
2013-8-8,94,83,76,84,79,76,100,90,65,29.89,29.82,4,0,4,0.00
2013-8-11,91,80,76,80,78,76,98,91,72,30.04,29.98,2,0,3,0.00
2013-8-12,91,79,75,86,78,75,100,97,78,30.03,29.93,1,0,1,0.51
2013-8-13,95,79,73,85,77,73,100,94,64,29.95,29.86,6,0,6,0.56
2013-8-14,82,75,72,80,74,72,100,98,91,29.91,29.83,6,0,6,0.43
2013-8-15,90,78,72,80,75,72,100,92,68,29.91,29.83,4,0,4,0.01
2013-8-16,90,77,70,80,74,70,100,91,64,29.91,29.83,5,0,5,0.00
2013-8-17,78,74,72,76,73,71,99,95,90,29.92,29.84,2,0,3,0.03
2013-8-18,81,74,71,79,74,71,100,99,94,29.92,29.84,7,0,7,1.89
2013-8-19,85,74,69,79,73,69,100,97,82,29.96,29.90,1,0,3,0.00
2013-8-20,88,78,70,82,76,70,100,95,75,30.00,29.91,5,0,5,1.07
2013-8-21,93,78,73,83,76,73,100,94,68,30.06,29.96,3,0,3,0.13
2013-8-22,94,79,71,82,76,71,100,90,61,30.02,29.89,5,0,5,0.10
2013-8-23,85,77,72,80,75,72,100,94,79,29.95,29.85,7,0,7,0.01
2013-8-24,79,75,72,77,74,72,100,98,93,30.05,29.90,2,0,2,0.44
2013-8-25,86,77,72,80,75,72,100,94,79,30.11,30.00,4,0,4,0.01
2013-8-26,90,77,70,77,73,69,99,87,53,30.12,30.01,4,0,4,0.00
2013-8-27,90,75,64,74,69,64,99,85,53,30.05,29.95,4,0,4,0.00
2013-8-28,91,75,64,77,70,63,99,86,56,30.01,29.92,5,0,5,0.00
2013-8-29,95,78,66,79,72,66,100,83,50,30.00,29.90,4,0,4,0.00
2013-8-30,95,78,68,80,73,68,100,86,55,29.96,29.83,2,0,3,0.00
2013-8-31,95,79,70,83,75,70,99,88,62,29.90,29.78,4,0,4,0.00
2013-9-1,97,82,72,83,77,72,99,86,55,29.86,29.78,3,0,3,0.00
2013-9-2,96,83,74,82,78,74,99,86,58,29.91,29.80,3,0,3,0.00
2013-9-3,96,80,72,84,77,71,99,92,62,29.91,29.81,4,0,4,0.67
2013-9-4,93,78,70,83,76,70,100,94,70,29.98,29.88,3,0,3,0.00
2013-9-5,92,80,72,83,76,71,100,90,67,30.04,29.95,4,0,4,0.00
2013-9-6,93,80,71,82,76,71,100,90,62,30.02,29.91,3,0,3,0.00
2013-9-7,94,79,70,80,74,70,100,86,48,29.98,29.89,3,0,3,0.00
2013-9-8,94,78,69,81,74,69,100,88,58,29.93,29.85,2,0,2,0.00
2013-9-9,94,79,69,80,74,69,100,86,56,29.97,29.88,4,0,4,0.00
2013-9-10,94,79,70,81,74,70,99,87,55,30.04,29.94,4,0,4,0.00
2013-9-11,93,79,71,78,74,70,99,85,57,30.04,29.95,4,0,4,0.00
2013-9-12,95,79,68,81,74,68,99,85,54,29.97,29.83,1,0,4,0.00
2013-9-13,94,80,69,80,74,69,100,85,49,29.86,29.73,2,0,2,0.00
2013-9-14,89,77,70,76,72,68,97,85,61,29.91,29.78,3,0,3,0.00
2013-9-15,94,80,68,80,74,66,97,84,59,29.98,29.90,4,0,4,0.00
2013-9-16,94,79,69,80,74,69,99,86,57,30.01,29.91,4,0,4,0.00
2013-9-17,93,79,71,80,74,70,99,88,59,30.00,29.89,4,0,4,0.03
2013-9-18,88,77,72,81,75,71,99,93,73,29.99,29.92,2,0,5,0.01
2013-9-19,88,78,72,80,75,72,99,91,74,29.98,29.90,4,0,4,0.00
2013-9-20,91,78,72,81,76,72,99,93,71,29.93,29.75,6,0,6,0.75
2013-9-21,78,76,70,78,75,70,99,99,97,29.75,29.64,3,0,4,0.56
2013-9-22,83,72,68,75,69,66,99,90,74,29.74,29.66,8,0,8,0.05
2013-9-23,92,76,64,81,72,63,98,89,66,29.79,29.71,4,0,4,0.00
2013-9-24,88,78,74,80,76,73,100,95,76,29.80,29.68,4,0,4,0.98
2013-9-25,90,77,69,78,73,69,100,90,56,29.76,29.67,4,0,4,0.00
2013-9-26,91,75,64,75,69,63,100,85,48,29.86,29.73,4,0,4,0.00
2013-9-27,88,75,67,74,70,66,99,87,56,29.95,29.85,4,0,4,0.00
2013-9-28,90,72,62,73,67,62,99,86,45,30.00,29.92,1,0,2,0.00
2013-9-29,88,73,63,74,68,63,99,88,61,29.97,29.87,6,0,6,0.00
2013-9-30,84,73,68,76,71,67,99,93,72,29.91,29.84,2,0,2,0.02
2013-10-1,90,76,67,78,73,67,99,91,65,29.97,29.89,2,0,5,0.00
2013-10-2,84,76,72,79,74,71,99,95,78,29.98,29.90,3,0,3,0.05
2013-10-3,87,75,71,79,73,70,100,96,77,29.97,29.89,2,0,2,0.00
2013-10-4,86,77,73,78,75,73,99,93,77,29.96,29.91,2,0,3,0.01
2013-10-5,90,78,72,81,75,71,100,90,63,29.94,29.85,4,0,4,0.10
2013-10-6,84,74,66,80,73,62,100,97,84,29.85,29.70,8,0,8,2.06
2013-10-7,78,66,55,62,57,52,97,75,44,29.95,29.81,11,0,11,0.00
2013-10-8,80,63,51,64,57,51,99,85,51,29.96,29.89,4,0,4,0.00
2013-10-9,84,69,57,75,66,56,99,92,72,30.01,29.93,3,0,3,0.00
2013-10-10,84,71,64,75,68,64,99,92,69,30.04,29.92,3,0,3,0.00
2013-10-11,87,71,61,75,68,61,100,90,62,29.99,29.89,2,0,4,0.00
2013-10-12,89,73,63,76,68,62,100,88,52,30.01,29.92,3,0,3,0.00
2013-10-13,89,74,66,77,70,65,100,90,61,30.08,29.98,3,0,4,0.00
2013-10-14,88,72,64,72,67,63,99,86,53,30.04,29.93,3,0,3,0.00
2013-10-15,86,72,63,74,68,63,99,90,62,29.99,29.88,3,0,3,0.00
2013-10-16,86,73,64,74,69,64,100,88,60,29.95,29.84,3,0,3,0.00
2013-10-17,84,75,66,77,72,63,98,89,72,29.90,29.82,6,0,6,0.00
2013-10-18,78,67,62,66,63,60,97,85,61,29.96,29.83,6,0,6,0.00
2013-10-19,68,63,57,67,62,57,99,96,89,29.95,29.83,5,0,5,0.50
2013-10-20,75,62,53,65,58,53,99,90,62,30.00,29.90,7,0,7,0.00
2013-10-21,73,63,56,66,61,55,99,92,76,30.00,29.90,3,0,3,0.00
2013-10-22,81,67,57,69,62,56,98,85,51,29.91,29.81,5,0,5,0.00
2013-10-23,76,60,48,58,52,47,99,80,37,30.07,29.90,5,0,8,0.00
2013-10-24,79,58,43,60,52,42,99,84,42,30.17,30.05,3,0,3,0.00
2013-10-25,69,56,44,55,48,42,98,78,42,30.32,30.14,9,0,9,0.00
2013-10-26,75,53,40,54,45,38,97,79,36,30.25,30.09,3,0,3,0.00
2013-10-27,75,58,44,66,55,44,99,90,62,30.11,30.00,4,0,4,0.00
2013-10-28,83,65,53,71,61,52,100,89,57,30.13,30.02,4,0,5,0.00
2013-10-29,81,66,56,70,63,56,100,91,64,30.19,30.10,3,0,3,0.00
2013-10-30,80,69,60,72,66,60,100,93,75,30.14,29.99,3,0,3,0.00
2013-10-31,80,75,68,74,72,67,99,90,78,29.99,29.76,6,1,9,0.41
2013-11-1,81,68,54,71,65,53,99,91,61,29.85,29.71,4,0,4,0.03
2013-11-2,77,60,49,61,52,47,99,80,47,30.07,29.84,6,0,6,0.00
2013-11-3,70,53,44,53,47,43,97,81,46,30.17,30.06,5,0,5,0.00
2013-11-4,75,59,44,62,54,43,98,85,61,30.20,30.10,2,0,4,0.00
2013-11-5,77,65,58,65,60,55,98,84,65,30.18,30.07,6,0,6,0.00
2013-11-6,78,62,56,72,60,54,97,94,80,30.08,30.03,5,0,5,0.00
2013-11-7,61,54,49,50,46,41,82,76,66,30.21,30.10,5,0,9,0.04
2013-11-8,66,57,41,43,41,38,87,57,39,30.27,30.12,9,0,9,0.00
2013-11-9,66,66,66,42,42,42,41,41,41,30.12,30.12,0,0,4,0.00
2013-11-10,66,66,66,42,42,42,41,41,41,30.12,30.12,0,0,4,0.00
2013-11-11,66,66,66,42,42,42,41,41,41,30.12,30.12,0,0,4,0.00
2013-11-12,66,66,66,42,42,42,41,41,41,30.12,30.12,0,0,4,0.00
2013-11-13,66,66,66,42,42,42,41,41,41,30.12,30.12,0,0,4,0.00
2013-11-14,63,57,55,53,51,50,84,80,66,30.15,30.07,2,0,2,0.00
2013-11-15,72,62,56,71,60,51,99,95,79,30.08,29.92,5,0,5,1.23
2013-11-16,74,68,62,73,67,62,100,98,93,30.01,29.91,4,0,4,0.00
2013-11-17,80,73,69,76,72,68,100,97,84,29.93,29.83,3,0,5,0.26
2013-11-18,73,66,56,73,63,45,100,91,64,30.02,29.87,7,0,7,0.41
2013-11-19,65,53,43,49,44,39,90,73,44,30.09,29.96,9,0,9,0.00
2013-11-20,74,54,39,63,50,37,99,87,62,30.08,29.96,2,0,3,0.00
2013-11-21,71,62,55,66,61,54,99,95,83,30.17,30.06,3,0,3,0.00
2013-11-22,78,68,60,74,66,60,99,96,84,30.14,30.06,2,0,2,0.21
2013-11-23,65,60,49,64,58,43,99,93,81,30.24,30.08,12,0,12,0.00
2013-11-24,55,46,38,44,34,30,82,66,41,30.33,30.21,8,1,11,0.00
2013-11-25,65,50,37,65,46,31,99,86,75,30.26,29.77,6,0,6,0.36
2013-11-26,67,51,43,67,51,43,99,97,93,29.91,29.66,11,0,11,2.03
2013-11-27,51,40,29,43,34,28,98,82,51,30.36,29.91,14,0,14,0.01
2013-11-28,52,36,27,35,29,26,97,80,40,30.47,30.34,4,0,4,0.00
2013-11-29,62,39,26,38,31,26,98,78,32,30.51,30.35,6,0,6,0.00
2013-11-30,70,46,30,52,40,29,98,83,45,30.41,30.20,3,0,3,0.00
2013-12-1,71,52,35,58,48,35,99,89,58,30.24,29.95,3,0,3,0.00
2013-12-2,72,58,45,61,54,45,99,88,58,29.95,29.72,5,0,5,0.00
2013-12-3,69,65,60,68,64,59,99,98,93,29.78,29.68,5,0,5,0.17
2013-12-4,77,71,67,74,70,66,100,97,88,29.90,29.77,6,0,6,0.04
2013-12-5,76,72,69,75,72,69,100,99,95,29.96,29.87,9,1,9,0.01
2013-12-6,77,70,49,75,69,48,100,98,92,30.11,29.88,8,1,8,0.86
2013-12-7,49,43,41,48,42,40,98,97,95,30.25,30.10,8,0,8,0.16
2013-12-8,57,50,42,56,50,42,99,98,96,30.18,29.97,1,0,3,0.00
2013-12-9,66,59,54,62,58,54,100,96,84,30.07,29.97,6,0,6,0.09
2013-12-10,58,45,35,57,43,34,98,92,77,30.31,29.97,10,0,10,0.26
2013-12-11,61,46,34,49,41,33,98,83,56,30.36,30.24,4,0,4,0.00
2013-12-12,57,45,32,42,35,30,93,70,40,30.45,30.32,10,0,10,0.00
2013-12-13,63,47,30,55,43,28,95,86,68,30.33,29.94,6,0,6,0.00
2013-12-14,76,63,50,69,61,47,99,93,77,29.97,29.75,8,0,8,0.09
2013-12-15,52,43,32,47,39,31,97,84,66,30.27,29.96,10,0,10,0.00
2013-12-16,62,41,29,46,36,29,99,86,42,30.33,30.18,2,0,2,0.00
2013-12-17,67,44,30,50,38,30,99,84,35,30.30,30.16,4,0,4,0.00
2013-12-18,69,46,34,50,40,33,99,84,38,30.33,30.18,2,0,5,0.00
2013-12-19,72,54,34,61,50,33,99,90,63,30.19,29.99,8,0,8,0.00
2013-12-20,74,67,57,70,66,56,99,96,88,30.04,29.90,8,0,8,0.00
2013-12-21,76,73,70,74,72,69,98,96,93,29.90,29.74,13,2,13,0.00
2013-12-22,72,61,56,72,60,55,100,99,96,30.07,29.75,13,1,13,3.42
2013-12-23,56,47,36,56,45,34,100,94,85,30.39,30.03,10,0,10,0.16
2013-12-24,54,39,31,37,33,29,96,81,50,30.48,30.31,8,0,8,0.00
2013-12-25,50,39,28,37,32,27,96,78,51,30.38,30.24,5,0,5,0.00
2013-12-26,54,43,34,44,37,32,94,80,55,30.33,30.21,7,0,7,0.00
2013-12-27,62,50,42,44,40,37,86,69,45,30.34,30.20,6,0,6,0.00
2013-12-28,50,48,45,50,47,42,99,97,76,30.20,29.87,6,0,6,1.93
2013-12-29,61,50,42,55,48,41,100,94,70,30.07,29.89,5,0,5,0.06
2013-12-30,57,48,38,54,47,38,99,96,81,30.26,30.06,2,0,2,0.00
2013-12-31,49,45,43,48,44,42,98,94,88,30.36,30.23,2,0,5,0.09
2014-1-1,60,51,43,58,51,42,99,98,93,30.28,29.97,1,0,1,0.10
2014-1-2,59,52,35,59,47,27,100,86,66,30.29,29.86,11,0,11,0.62